Time;durP1;ratioP1;P1;durP2;ratioP2;P2;SDS_P1;SDS_P2;PMS_P1;PMS_P2;Temp;Humidity;BMP_temperature;BMP_pressure;BME280_temperature;BME280_humidity;BME280_pressure;Samples;Min_cycle;Max_cycle;Signal;HPM_P1;HPM_P2
2022/06/05 00:00:02;;;;;;;10.50;8.10;;;640.00;2432.00;;;;;;5080629;28;20101;-81
2022/06/05 00:03:06;;;;;;;13.32;8.20;;;640.00;2432.00;;;;;;5082732;28;20052;-84
2022/06/05 00:05:43;;;;;;;11.32;7.88;;;640.00;2432.00;;;;;;5063894;28;20132;-78
2022/06/05 00:08:17;;;;;;;13.00;8.50;;;615.30;2432.00;;;;;;5062933;28;20033;-83
2022/06/05 00:10:55;;;;;;;12.55;8.60;;;640.00;2432.00;;;;;;5061773;28;20056;-78
2022/06/05 00:13:26;;;;;;;14.95;8.38;;;615.30;2432.00;;;;;;5061760;28;20025;-78
2022/06/05 00:15:52;;;;;;;12.77;8.65;;;640.00;2432.00;;;;;;5042859;28;20044;-83
2022/06/05 00:18:18;;;;;;;10.13;8.85;;;615.30;2432.00;;;;;;5053481;28;20017;-83
2022/06/05 00:20:45;;;;;;;13.82;9.75;;;615.20;2432.00;;;;;;5061981;28;20044;-81
2022/06/05 00:23:11;;;;;;;16.10;8.88;;;615.10;2432.00;;;;;;5067085;28;20044;-84
2022/06/05 00:26:01;;;;;;;13.63;8.85;;;615.20;2432.00;;;;;;5070591;28;20035;-83
2022/06/05 00:28:37;;;;;;;10.32;8.55;;;615.10;2432.00;;;;;;5069948;28;20025;-84
2022/06/05 00:31:30;;;;;;;11.48;9.27;;;615.10;2432.00;;;;;;5053623;28;20041;-81
2022/06/05 00:33:57;;;;;;;11.02;9.23;;;615.10;2432.00;;;;;;5061756;28;20032;-78
2022/06/05 00:36:44;;;;;;;12.93;8.57;;;615.10;2432.00;;;;;;5061575;28;20037;-82
2022/06/05 00:39:24;;;;;;;13.38;9.88;;;615.10;2432.00;;;;;;5062349;28;20085;-85
2022/06/05 00:42:09;;;;;;;12.10;9.85;;;615.10;2432.00;;;;;;5052468;28;20139;-84
2022/06/05 00:44:46;;;;;;;18.40;10.07;;;615.00;2432.00;;;;;;5059651;28;20041;-83
2022/06/05 00:47:14;;;;;;;12.60;9.77;;;615.00;2432.00;;;;;;5059854;28;20514;-83
2022/06/05 00:49:50;;;;;;;13.65;9.77;;;615.10;2432.00;;;;;;5060934;28;20040;-84
2022/06/05 00:52:19;;;;;;;17.45;9.57;;;615.00;2432.00;;;;;;5063653;28;20397;-79
2022/06/05 00:54:45;;;;;;;14.65;10.00;;;615.00;2432.00;;;;;;5061703;28;20053;-84
2022/06/05 00:57:13;;;;;;;11.07;9.60;;;615.00;2432.00;;;;;;5064029;28;20052;-84
2022/06/05 00:59:40;;;;;;;15.93;10.65;;;615.00;2432.00;;;;;;5064429;28;20107;-83
2022/06/05 01:02:09;;;;;;;12.57;9.18;;;615.00;2432.00;;;;;;5065701;28;20106;-84
2022/06/05 01:04:37;;;;;;;13.30;10.05;;;615.00;2432.00;;;;;;5071089;28;20156;-84
2022/06/05 01:07:04;;;;;;;12.48;10.45;;;614.90;2432.00;;;;;;5072224;28;20028;-77
2022/06/05 01:09:30;;;;;;;13.40;10.73;;;614.90;2432.00;;;;;;5063899;28;20075;-83
2022/06/05 01:12:13;;;;;;;14.27;10.18;;;614.90;2432.00;;;;;;5066289;28;20031;-80
2022/06/05 01:14:57;;;;;;;12.43;10.10;;;615.00;2432.00;;;;;;5076878;28;20024;-85
2022/06/05 01:17:32;;;;;;;13.82;10.13;;;614.90;2432.00;;;;;;5066571;28;20478;-84
2022/06/05 01:20:34;;;;;;;16.30;10.90;;;614.80;2432.00;;;;;;5062649;28;20020;-78
2022/06/05 01:23:47;;;;;;;13.77;10.27;;;614.70;2432.00;;;;;;5037789;28;20721;-78
2022/06/05 01:26:29;;;;;;;14.23;10.00;;;614.70;2432.00;;;;;;4965511;28;20047;-77
2022/06/05 01:29:18;;;;;;;12.70;9.98;;;614.80;2432.00;;;;;;4965835;28;20061;-84
2022/06/05 01:31:56;;;;;;;13.82;11.45;;;614.70;2432.00;;;;;;4965743;28;20035;-84
2022/06/05 01:34:38;;;;;;;15.07;11.25;;;;;;;;;;4963629;28;20039;-83
2022/06/05 01:37:31;;;;;;;19.75;12.43;;;614.60;2432.00;;;;;;4964491;28;20035;-84
2022/06/05 01:40:09;;;;;;;14.50;11.43;;;614.50;2432.00;;;;;;4965869;28;20027;-83
2022/06/05 01:42:42;;;;;;;15.38;11.57;;;614.50;2432.00;;;;;;4949390;28;20034;-84
2022/06/05 01:45:33;;;;;;;14.00;11.73;;;614.60;2432.00;;;;;;4967425;28;20035;-84
2022/06/05 01:48:00;;;;;;;14.43;10.45;;;614.50;2432.00;;;;;;4948901;28;20114;-82
2022/06/05 01:50:25;;;;;;;14.10;11.27;;;614.50;2432.00;;;;;;4947056;28;20038;-84
2022/06/05 01:52:57;;;;;;;13.75;11.93;;;614.60;2432.00;;;;;;4960162;28;20037;-84
2022/06/05 01:55:53;;;;;;;16.00;11.82;;;614.60;2432.00;;;;;;4944017;28;20108;-82
2022/06/05 01:58:25;;;;;;;13.93;10.68;;;614.50;2432.00;;;;;;4930355;28;20036;-83
2022/06/05 02:00:54;;;;;;;19.08;10.70;;;614.40;2432.00;;;;;;4975981;28;20496;-84
2022/06/05 02:03:25;;;;;;;18.08;10.38;;;614.40;2432.00;;;;;;5001805;28;20042;-84
2022/06/05 02:05:57;;;;;;;16.15;11.18;;;589.70;2432.00;;;;;;5000154;28;20038;-85
2022/06/05 02:08:33;;;;;;;17.42;11.82;;;589.70;2432.00;;;;;;5003682;28;20547;-83
2022/06/05 02:11:18;;;;;;;14.35;11.57;;;;;;;;;;5004170;28;20477;-78
2022/06/05 02:13:44;;;;;;;12.98;10.90;;;589.50;2432.00;;;;;;4985952;28;20044;-84
2022/06/05 02:16:10;;;;;;;16.08;11.88;;;589.50;2432.00;;;;;;4985424;28;20113;-84
2022/06/05 02:18:36;;;;;;;13.15;11.32;;;589.40;2432.00;;;;;;4983233;28;20113;-78
2022/06/05 02:21:03;;;;;;;17.67;13.10;;;589.30;2432.00;;;;;;5007276;28;20444;-79
2022/06/05 02:23:33;;;;;;;15.98;12.43;;;589.20;2432.00;;;;;;5009992;28;20069;-78
2022/06/05 02:26:01;;;;;;;14.45;12.00;;;589.20;2432.00;;;;;;5003960;28;20118;-84
2022/06/05 02:28:27;;;;;;;19.48;12.85;;;589.10;2432.00;;;;;;4984605;28;20037;-84
2022/06/05 02:31:01;;;;;;;18.55;11.95;;;589.00;2432.00;;;;;;5002798;28;20378;-83
2022/06/05 02:33:41;;;;;;;18.90;12.38;;;589.10;2432.00;;;;;;5010033;28;20026;-83
2022/06/05 02:36:16;;;;;;;15.18;12.68;;;589.10;2432.00;;;;;;5066705;28;20032;-84
2022/06/05 02:39:02;;;;;;;16.17;11.82;;;589.00;2432.00;;;;;;5062805;28;20474;-85
2022/06/05 02:41:48;;;;;;;16.50;11.45;;;589.00;2432.00;;;;;;5087587;28;20020;-84
2022/06/05 02:44:44;;;;;;;15.68;12.77;;;588.90;2432.00;;;;;;5091540;28;20375;-78
2022/06/05 02:47:19;;;;;;;19.50;13.02;;;588.80;2432.00;;;;;;5077753;28;20033;-84
2022/06/05 02:50:04;;;;;;;14.07;12.63;;;588.80;2432.00;;;;;;5061851;28;20482;-83
2022/06/05 02:52:31;;;;;;;16.20;13.20;;;588.90;2432.00;;;;;;5065034;28;20028;-82
2022/06/05 02:55:06;;;;;;;18.83;12.70;;;588.80;2432.00;;;;;;5065742;28;20017;-82
2022/06/05 02:57:32;;;;;;;18.33;13.10;;;588.90;2432.00;;;;;;5059003;28;20021;-80
2022/06/05 02:59:59;;;;;;;15.57;12.43;;;588.90;2432.00;;;;;;5063349;28;20040;-83
2022/06/05 03:05:11;;;;;;;19.48;13.15;;;588.90;2432.00;;;;;;5043869;28;20107;-83
2022/06/05 03:07:37;;;;;;;16.98;12.43;;;588.90;2432.00;;;;;;5040653;28;20029;-82
2022/06/05 03:10:04;;;;;;;20.08;12.65;;;588.90;2432.00;;;;;;5033634;28;20044;-81
2022/06/05 03:12:30;;;;;;;20.73;12.85;;;589.00;2432.00;;;;;;5041333;28;20017;-78
2022/06/05 03:15:01;;;;;;;19.10;12.93;;;589.00;2432.00;;;;;;5040538;28;20502;-84
2022/06/05 03:17:27;;;;;;;20.20;12.85;;;589.00;2432.00;;;;;;5043183;28;20059;-83
2022/06/05 03:19:53;;;;;;;22.20;12.27;;;588.90;2432.00;;;;;;5034182;28;20079;-78
2022/06/05 03:22:19;;;;;;;19.15;13.77;;;589.00;2432.00;;;;;;5040227;28;20041;-84
2022/06/05 03:24:45;;;;;;;17.65;13.10;;;588.90;2432.00;;;;;;5025270;28;20040;-78
2022/06/05 03:27:10;;;;;;;21.17;13.93;;;588.90;2432.00;;;;;;5042081;28;20017;-83
2022/06/05 03:29:36;;;;;;;16.88;12.68;;;589.10;2432.00;;;;;;5030658;28;20041;-84
2022/06/05 03:32:02;;;;;;;16.88;12.75;;;589.30;2432.00;;;;;;5003572;28;20018;-77
2022/06/05 03:34:28;;;;;;;16.02;13.18;;;589.30;2432.00;;;;;;5013534;28;20509;-82
2022/06/05 03:36:54;;;;;;;16.90;13.45;;;589.40;2432.00;;;;;;5021936;28;20029;-78
2022/06/05 03:39:20;;;;;;;19.42;13.48;;;589.50;2432.00;;;;;;5022054;28;20021;-82
2022/06/05 03:41:46;;;;;;;16.95;12.75;;;589.50;2432.00;;;;;;5028159;28;20053;-78
2022/06/05 03:44:12;;;;;;;17.70;13.70;;;589.50;2432.00;;;;;;5040934;28;20041;-77
2022/06/05 03:46:39;;;;;;;24.23;14.07;;;589.60;2432.00;;;;;;5041011;28;20028;-82
2022/06/05 03:49:07;;;;;;;22.63;15.13;;;589.70;2432.00;;;;;;5040846;28;20099;-81
2022/06/05 03:51:34;;;;;;;18.45;14.48;;;589.70;2432.00;;;;;;5039795;28;20029;-77
2022/06/05 03:54:00;;;;;;;21.25;14.43;;;589.60;2432.00;;;;;;5042124;28;20041;-82
2022/06/05 03:56:27;;;;;;;16.83;13.57;;;589.50;2432.00;;;;;;5043228;28;20025;-82
2022/06/05 03:58:53;;;;;;;20.15;14.50;;;589.50;2432.00;;;;;;5044104;28;20329;-80
2022/06/05 04:01:21;;;;;;;20.23;14.75;;;589.50;2432.00;;;;;;5071275;28;20115;-82
2022/06/05 04:03:47;;;;;;;18.20;14.38;;;589.50;2432.00;;;;;;5053686;28;20061;-79
2022/06/05 04:06:16;;;;;;;19.67;14.68;;;589.70;2432.00;;;;;;5042908;28;20033;-82
2022/06/05 04:08:42;;;;;;;18.77;14.50;;;589.60;2432.00;;;;;;5043373;28;20074;-82
2022/06/05 04:11:10;;;;;;;21.33;15.63;;;589.40;2432.00;;;;;;5052068;28;20025;-82
2022/06/05 04:13:36;;;;;;;19.90;15.05;;;589.40;2432.00;;;;;;5065640;28;20479;-81
2022/06/05 04:16:08;;;;;;;16.30;14.32;;;589.50;2432.00;;;;;;5065857;28;20029;-82
2022/06/05 04:18:34;;;;;;;19.77;15.68;;;589.60;2432.00;;;;;;5046262;28;20071;-80
2022/06/05 04:21:04;;;;;;;17.35;14.38;;;589.70;2432.00;;;;;;5042385;28;20037;-82
2022/06/05 04:23:30;;;;;;;20.98;15.70;;;589.70;2432.00;;;;;;5041269;28;20075;-83
2022/06/05 04:25:55;;;;;;;20.58;15.25;;;614.40;2432.00;;;;;;5042192;28;20430;-84
2022/06/05 04:28:21;;;;;;;25.17;16.33;;;614.40;2432.00;;;;;;5042392;28;20435;-84
2022/06/05 04:30:47;;;;;;;20.40;14.45;;;614.60;2432.00;;;;;;5080217;28;20041;-77
2022/06/05 04:33:12;;;;;;;19.70;14.52;;;614.70;2432.00;;;;;;5086975;28;20020;-87
2022/06/05 04:35:38;;;;;;;18.10;14.85;;;614.60;2432.00;;;;;;5086206;28;20095;-83
2022/06/05 04:38:04;;;;;;;20.98;15.70;;;614.60;2432.00;;;;;;5089012;28;20117;-84
2022/06/05 04:40:30;;;;;;;17.48;15.27;;;614.60;2432.00;;;;;;5083945;28;20057;-85
2022/06/05 04:42:55;;;;;;;18.15;14.27;;;614.70;2432.00;;;;;;5085123;28;20024;-86
2022/06/05 04:45:21;;;;;;;18.10;15.10;;;614.70;2432.00;;;;;;5084329;28;20036;-86
2022/06/05 04:47:47;;;;;;;16.77;14.98;;;614.70;2432.00;;;;;;5087057;28;20024;-87
2022/06/05 04:50:13;;;;;;;20.25;15.40;;;614.80;2432.00;;;;;;5086106;28;20024;-88
2022/06/05 04:52:39;;;;;;;17.52;15.65;;;614.80;2432.00;;;;;;5084538;28;20020;-87
2022/06/05 04:55:05;;;;;;;18.75;14.38;;;614.90;2432.00;;;;;;5083610;28;20378;-83
2022/06/05 04:57:31;;;;;;;16.80;14.85;;;614.90;2432.00;;;;;;5086919;28;20024;-88
2022/06/05 04:59:56;;;;;;;19.85;13.18;;;614.90;2432.00;;;;;;5086132;28;20027;-86
2022/06/05 05:02:22;;;;;;;20.58;15.30;;;614.90;2432.00;;;;;;5087910;28;20032;-80
2022/06/05 05:04:48;;;;;;;15.63;14.02;;;615.00;2432.00;;;;;;5091850;28;20051;-87
2022/06/05 05:07:18;;;;;;;18.25;14.88;;;615.00;2432.00;;;;;;5090647;28;20028;-79
2022/06/05 05:09:43;;;;;;;19.48;14.77;;;615.00;2432.00;;;;;;5085557;28;20032;-86
2022/06/05 05:12:12;;;;;;;15.15;13.50;;;615.00;2432.00;;;;;;5084951;28;20148;-84
2022/06/05 05:14:39;;;;;;;15.38;13.75;;;615.20;2432.00;;;;;;5083714;28;20028;-83
2022/06/05 05:17:05;;;;;;;18.75;13.48;;;615.10;2432.00;;;;;;5085323;28;20028;-80
2022/06/05 05:19:31;;;;;;;19.10;13.60;;;615.10;2432.00;;;;;;5083931;28;20069;-83
2022/06/05 05:21:57;;;;;;;19.80;13.88;;;640.00;2432.00;;;;;;5087051;28;20024;-79
2022/06/05 05:24:23;;;;;;;15.93;12.52;;;640.00;2432.00;;;;;;5082895;28;20032;-81
2022/06/05 05:26:49;;;;;;;16.05;14.35;;;640.10;2432.00;;;;;;5083122;28;20039;-81
2022/06/05 05:29:15;;;;;;;14.70;12.93;;;640.10;2432.00;;;;;;5083530;28;20485;-78
2022/06/05 05:31:44;;;;;;;16.52;12.60;;;640.10;2432.00;;;;;;5081691;28;20115;-78
2022/06/05 05:34:10;;;;;;;20.83;14.88;;;640.10;2432.00;;;;;;5084775;28;20043;-82
2022/06/05 05:36:37;;;;;;;16.85;12.88;;;640.10;2432.00;;;;;;5084619;28;20027;-78
2022/06/05 05:42:05;;;;;;;18.90;13.10;;;640.30;2432.00;;;;;;5085359;28;20042;-81
2022/06/05 05:44:31;;;;;;;16.40;14.38;;;640.50;2432.00;;;;;;5082663;28;20035;-79
2022/06/05 05:46:57;;;;;;;17.48;13.70;;;640.40;2432.00;;;;;;5083268;28;20106;-79
2022/06/05 05:49:23;;;;;;;17.40;12.68;;;640.50;2432.00;;;;;;5083839;28;20032;-79
2022/06/05 05:51:49;;;;;;;14.82;11.50;;;640.50;2432.00;;;;;;5082206;28;20028;-79
2022/06/05 05:54:15;;;;;;;12.70;11.18;;;640.60;2432.00;;;;;;5085018;28;20016;-78
2022/06/05 05:56:41;;;;;;;13.82;10.90;;;640.60;2432.00;;;;;;5081339;28;20016;-79
2022/06/05 05:59:07;;;;;;;12.50;11.10;;;640.90;2432.00;;;;;;5083953;28;20035;-80
2022/06/05 06:01:34;;;;;;;12.43;9.73;;;640.90;2432.00;;;;;;5085098;28;20070;-78
2022/06/05 06:03:59;;;;;;;12.68;8.77;;;665.60;2432.00;;;;;;5083016;28;20101;-87
2022/06/05 06:06:29;;;;;;;16.83;10.05;;;665.70;2432.00;;;;;;5085065;28;20124;-82
2022/06/05 06:08:55;;;;;;;15.10;9.95;;;665.80;2432.00;;;;;;5082284;28;20076;-79
2022/06/05 06:11:21;;;;;;;11.75;9.13;;;665.90;2432.00;;;;;;5083700;28;20462;-78
2022/06/05 06:13:47;;;;;;;12.57;9.77;;;665.90;2432.00;;;;;;5082910;28;20039;-77
2022/06/05 06:16:13;;;;;;;9.65;8.15;;;666.00;2432.00;;;;;;5080943;28;20017;-79
2022/06/05 06:18:39;;;;;;;14.43;9.02;;;666.10;2432.00;;;;;;5082559;28;20085;-78
2022/06/05 06:21:05;;;;;;;12.65;7.30;;;666.30;2432.00;;;;;;5092743;28;20458;-78
2022/06/05 06:23:32;;;;;;;10.18;7.20;;;666.30;2432.00;;;;;;5092688;28;20035;-78
2022/06/05 06:25:58;;;;;;;9.85;6.15;;;666.50;2432.00;;;;;;5092750;28;20032;-77
2022/06/05 06:28:24;;;;;;;9.45;6.10;;;666.50;2432.00;;;;;;5091978;28;20024;-77
2022/06/05 06:30:50;;;;;;;9.02;6.22;;;691.20;2432.00;;;;;;5088245;28;20119;-77
2022/06/05 06:33:16;;;;;;;6.57;5.60;;;691.20;2432.00;;;;;;5073394;28;20024;-77
2022/06/05 06:35:42;;;;;;;10.32;6.70;;;691.30;2432.00;;;;;;5088427;28;20379;-77
2022/06/05 06:38:08;;;;;;;10.43;6.35;;;691.30;2432.00;;;;;;5091835;28;20032;-77
2022/06/05 06:40:35;;;;;;;10.80;6.18;;;691.40;2432.00;;;;;;5093783;28;20099;-78
2022/06/05 06:43:02;;;;;;;7.65;6.18;;;691.40;2432.00;;;;;;5092509;28;20081;-77
2022/06/05 06:45:28;;;;;;;8.10;5.68;;;691.40;2432.00;;;;;;5103191;28;20032;-77
2022/06/05 06:47:54;;;;;;;8.88;6.50;;;691.50;2432.00;;;;;;5099608;28;20069;-75
2022/06/05 06:50:20;;;;;;;10.52;5.95;;;691.60;2432.00;;;;;;5102651;28;20393;-77
2022/06/05 06:52:46;;;;;;;8.35;5.78;;;691.70;2432.00;;;;;;5091949;28;20037;-78
2022/06/05 06:55:16;;;;;;;9.27;5.95;;;691.80;2432.00;;;;;;5091305;28;20025;-77
2022/06/05 06:57:43;;;;;;;7.38;5.35;;;691.80;2432.00;;;;;;5091967;28;20034;-78
2022/06/05 07:00:12;;;;;;;6.05;5.05;;;691.80;2432.00;;;;;;5085866;28;20037;-79
2022/06/05 07:02:38;;;;;;;7.90;5.60;;;691.90;2432.00;;;;;;5084213;28;20073;-79
2022/06/05 07:05:04;;;;;;;8.00;5.72;;;692.00;2432.00;;;;;;5093339;28;20036;-79
2022/06/05 07:07:30;;;;;;;6.53;5.00;;;716.80;2432.00;;;;;;5093181;28;20024;-79
2022/06/05 07:09:55;;;;;;;11.82;5.10;;;716.80;2432.00;;;;;;5093291;28;20024;-79
2022/06/05 07:12:21;;;;;;;9.55;5.45;;;716.90;2432.00;;;;;;5091802;28;20024;-79
2022/06/05 07:14:47;;;;;;;10.65;5.88;;;717.00;2432.00;;;;;;5091878;28;20031;-80
2022/06/05 07:17:13;;;;;;;7.13;5.30;;;717.10;2432.00;;;;;;5092077;28;20024;-82
2022/06/05 07:19:39;;;;;;;6.40;4.40;;;717.10;2432.00;;;;;;5093512;28;20059;-82
2022/06/05 07:22:05;;;;;;;7.68;4.80;;;717.20;2406.40;;;;;;5086779;28;20031;-79
2022/06/05 07:24:30;;;;;;;5.82;4.70;;;717.30;2380.80;;;;;;5082129;28;20091;-79
2022/06/05 07:26:56;;;;;;;13.63;5.13;;;717.20;2304.00;;;;;;5081374;28;20020;-79
2022/06/05 07:29:22;;;;;;;7.32;4.57;;;717.40;2355.20;;;;;;5079715;28;20043;-80
2022/06/05 07:31:48;;;;;;;7.18;4.72;;;717.40;2380.80;;;;;;5072930;28;20082;-79
2022/06/05 07:34:13;;;;;;;9.38;4.05;;;717.50;2252.80;;;;;;5083040;28;20504;-81
2022/06/05 07:36:39;;;;;;;7.20;4.57;;;717.60;2304.00;;;;;;5086107;28;20504;-75
2022/06/05 07:39:05;;;;;;;7.78;3.97;;;717.60;2304.00;;;;;;5082939;28;20048;-79
2022/06/05 07:41:36;;;;;;;7.95;4.18;;;717.70;2329.60;;;;;;5080735;28;20120;-76
2022/06/05 07:44:02;;;;;;;5.72;4.10;;;742.40;2355.20;;;;;;5081484;28;20122;-77
2022/06/05 07:46:29;;;;;;;8.85;4.68;;;742.50;2252.80;;;;;;5084219;28;20103;-76
2022/06/05 07:48:55;;;;;;;7.15;4.53;;;742.50;2201.60;;;;;;5083126;28;20028;-76
2022/06/05 07:54:28;;;;;;;6.07;4.00;;;742.50;2201.60;;;;;;5083370;28;20035;-76
2022/06/05 07:57:02;;;;;;;8.90;4.55;;;742.60;2176.00;;;;;;5083392;28;20027;-77
2022/06/05 07:59:31;;;;;;;7.30;4.10;;;742.60;2150.40;;;;;;5091879;28;20107;-76
2022/06/05 08:01:58;;;;;;;6.57;3.88;;;742.80;2124.80;;;;;;5092240;28;20031;-78
2022/06/05 08:04:26;;;;;;;5.55;3.60;;;742.80;2022.40;;;;;;5092034;28;20036;-78
2022/06/05 08:06:57;;;;;;;5.95;3.53;;;742.80;2022.40;;;;;;5088360;28;20023;-78
2022/06/05 08:09:23;;;;;;;11.35;4.53;;;743.00;2022.40;;;;;;5081978;28;20103;-78
2022/06/05 08:11:49;;;;;;;6.30;3.97;;;742.90;2022.40;;;;;;5079656;28;20029;-79
2022/06/05 08:14:15;;;;;;;6.47;3.88;;;743.00;2073.60;;;;;;5079680;28;20469;-83
2022/06/05 08:16:43;;;;;;;6.43;3.38;;;742.80;2048.00;;;;;;5090955;28;20074;-79
2022/06/05 08:19:15;;;;;;;10.38;4.72;;;743.10;1996.80;;;;;;5091541;28;20032;-79
2022/06/05 08:21:41;;;;;;;7.65;3.85;;;743.20;1971.20;;;;;;5092026;28;20655;-79
2022/06/05 08:24:08;;;;;;;7.50;4.30;;;743.30;2150.40;;;;;;5104669;28;20039;-78
2022/06/05 08:26:34;;;;;;;7.50;4.03;;;768.00;2150.40;;;;;;5078602;28;20036;-76
2022/06/05 08:29:00;;;;;;;6.20;3.88;;;768.10;2099.20;;;;;;5079986;28;20058;-77
2022/06/05 08:31:29;;;;;;;6.75;3.67;;;768.20;1971.20;;;;;;5089439;28;20020;-79
2022/06/05 08:33:56;;;;;;;10.35;4.45;;;768.20;1996.80;;;;;;5079882;28;20013;-79
2022/06/05 08:36:22;;;;;;;11.30;4.40;;;768.00;1971.20;;;;;;5077481;28;20078;-80
2022/06/05 08:41:39;;;;;;;6.25;4.25;;;768.10;1868.80;;;;;;5080117;28;20511;-79
2022/06/05 08:44:28;;;;;;;9.85;4.30;;;768.10;1971.20;;;;;;5090551;28;20034;-80
2022/06/05 08:47:01;;;;;;;7.95;4.30;;;768.10;1945.60;;;;;;5079137;28;20378;-80
2022/06/05 08:49:37;;;;;;;6.45;3.47;;;768.10;1996.80;;;;;;5081480;28;20142;-79
2022/06/05 08:52:24;;;;;;;11.50;3.90;;;768.10;1894.40;;;;;;5082614;28;20452;-79
2022/06/05 08:55:06;;;;;;;5.47;4.32;;;768.00;1920.00;;;;;;5080632;28;20030;-78
2022/06/05 08:57:55;;;;;;;6.72;4.07;;;743.30;1971.20;;;;;;5091761;28;20432;-79
2022/06/05 09:00:34;;;;;;;8.40;4.43;;;768.00;1945.60;;;;;;5090727;28;20024;-79
2022/06/05 09:03:27;;;;;;;11.13;4.45;;;768.20;1971.20;;;;;;5090149;28;20040;-78
2022/06/05 09:06:29;;;;;;;8.38;4.57;;;768.50;1971.20;;;;;;5090044;28;20039;-78
2022/06/05 09:08:58;;;;;;;7.07;3.70;;;768.60;1894.40;;;;;;5048221;28;20071;-79
2022/06/05 09:11:41;;;;;;;7.05;4.07;;;768.80;1945.60;;;;;;5031428;28;20471;-79
2022/06/05 09:14:23;;;;;;;5.95;4.32;;;793.60;1971.20;;;;;;5046902;28;20033;-79
2022/06/05 09:16:53;;;;;;;8.48;4.55;;;793.70;1971.20;;;;;;5049300;28;20120;-78
2022/06/05 09:19:26;;;;;;;7.15;3.83;;;793.80;1843.20;;;;;;5036380;28;20083;-79
2022/06/05 09:21:54;;;;;;;5.75;4.15;;;794.00;1868.80;;;;;;5035992;28;20518;-79
2022/06/05 09:24:39;;;;;;;7.75;4.60;;;794.00;1920.00;;;;;;5052826;28;20033;-79
2022/06/05 09:27:32;;;;;;;9.13;4.47;;;793.70;1945.60;;;;;;5035282;28;20028;-77
2022/06/05 09:30:11;;;;;;;6.57;3.95;;;768.80;1894.40;;;;;;5051303;28;20503;-79
2022/06/05 09:32:55;;;;;;;7.15;4.25;;;793.70;1817.60;;;;;;5051689;28;20544;-78
2022/06/05 09:35:24;;;;;;;5.55;4.30;;;794.10;1766.40;;;;;;5051888;28;20033;-79
2022/06/05 09:38:12;;;;;;;4.75;3.80;;;794.20;1843.20;;;;;;5052318;28;20104;-79
2022/06/05 09:40:44;;;;;;;9.73;4.78;;;794.50;1868.80;;;;;;5052124;28;20065;-79
2022/06/05 09:43:28;;;;;;;5.97;4.15;;;819.20;1766.40;;;;;;5035603;28;20025;-79
2022/06/05 09:46:21;;;;;;;7.38;3.70;;;794.50;1664.00;;;;;;5111014;27;20044;-80
2022/06/05 09:49:07;;;;;;;5.28;3.88;;;819.20;1689.60;;;;;;5085113;28;20106;-80
2022/06/05 09:51:36;;;;;;;11.27;4.28;;;819.30;1664.00;;;;;;5094895;28;20024;-80
2022/06/05 09:54:17;;;;;;;7.25;4.10;;;819.60;1715.20;;;;;;5095075;28;20024;-77
2022/06/05 10:00:01;;;;;;;7.78;4.07;;;819.80;1587.20;;;;;;5094425;28;20065;-78
2022/06/05 10:02:29;;;;;;;10.48;3.63;;;820.10;1561.60;;;;;;5077840;28;20119;-79
2022/06/05 10:04:55;;;;;;;8.57;4.15;;;844.90;1638.40;;;;;;5084583;28;20036;-77
2022/06/05 10:07:33;;;;;;;10.93;4.25;;;844.80;1536.00;;;;;;5083397;28;20028;-76
2022/06/05 10:10:06;;;;;;;7.82;3.92;;;819.70;1612.80;;;;;;5083630;28;20493;-77
2022/06/05 10:12:44;;;;;;;6.22;4.30;;;819.20;1587.20;;;;;;5085662;28;20116;-79
2022/06/05 10:15:26;;;;;;;6.30;4.13;;;794.50;1638.40;;;;;;5085519;28;20088;-77
2022/06/05 10:18:09;;;;;;;6.80;3.83;;;794.50;1638.40;;;;;;5081610;28;20090;-77
2022/06/05 10:20:37;;;;;;;6.90;4.13;;;794.50;1664.00;;;;;;5080813;28;20028;-77
2022/06/05 10:23:10;;;;;;;6.72;3.72;;;794.50;1664.00;;;;;;5083316;28;20035;-77
2022/06/05 10:25:42;;;;;;;6.55;3.78;;;819.70;1612.80;;;;;;5089864;28;20066;-77
2022/06/05 10:28:19;;;;;;;6.57;3.90;;;844.80;1587.20;;;;;;5108961;28;20042;-78
2022/06/05 10:31:08;;;;;;;5.95;3.70;;;845.10;1561.60;;;;;;5080984;28;20048;-81
2022/06/05 10:33:40;;;;;;;9.68;4.05;;;844.80;1612.80;;;;;;5083896;28;20081;-81
2022/06/05 10:36:13;;;;;;;8.60;3.80;;;845.30;1536.00;;;;;;5088942;28;20411;-82
2022/06/05 10:38:42;;;;;;;8.40;4.50;;;845.40;1484.80;;;;;;5080389;28;20012;-78
2022/06/05 10:41:30;;;;;;;9.98;4.05;;;844.90;1536.00;;;;;;5092721;28;20027;-78
2022/06/05 10:44:28;;;;;;;5.70;3.30;;;820.10;1484.80;;;;;;5034659;28;20052;-78
2022/06/05 10:47:00;;;;;;;11.70;4.82;;;819.80;1536.00;;;;;;5030212;28;20040;-77
2022/06/05 10:49:50;;;;;;;9.15;3.88;;;819.50;1561.60;;;;;;5034435;28;20123;-77
2022/06/05 10:52:41;;;;;;;5.85;3.50;;;819.40;1536.00;;;;;;5034524;28;20499;-78
2022/06/05 10:55:22;;;;;;;5.68;3.83;;;819.60;1561.60;;;;;;5051334;28;20175;-78
2022/06/05 10:58:02;;;;;;;9.48;3.95;;;819.70;1484.80;;;;;;5049818;28;20052;-78
2022/06/05 11:00:49;;;;;;;6.78;3.65;;;819.60;1510.40;;;;;;5011198;28;20589;-78
2022/06/05 11:03:27;;;;;;;6.00;3.90;;;819.40;1510.40;;;;;;5027868;28;20083;-77
2022/06/05 11:06:07;;;;;;;4.32;3.33;;;819.20;1536.00;;;;;;5007254;28;20103;-77
2022/06/05 11:08:56;;;;;;;5.68;3.70;;;794.50;1536.00;;;;;;5029988;28;20030;-78
2022/06/05 11:14:40;;;;;;;8.75;3.80;;;794.30;1561.60;;;;;;5028146;28;20173;-77
2022/06/05 11:17:31;;;;;;;7.78;3.72;;;794.30;1664.00;;;;;;5028072;28;20033;-79
2022/06/05 11:20:14;;;;;;;5.97;3.28;;;794.40;1638.40;;;;;;5032543;28;20032;-78
2022/06/05 11:22:56;;;;;;;5.65;3.08;;;819.70;1587.20;;;;;;5059575;28;20055;-78
2022/06/05 11:25:25;;;;;;;7.53;3.78;;;819.90;1536.00;;;;;;5089412;28;20038;-78
2022/06/05 11:28:20;;;;;;;6.78;3.78;;;819.90;1561.60;;;;;;5099480;28;20099;-78
2022/06/05 11:31:08;;;;;;;6.43;2.90;;;845.00;1510.40;;;;;;5066681;28;20038;-77
2022/06/05 11:33:52;;;;;;;4.15;2.95;;;845.20;1484.80;;;;;;5065189;28;20082;-77
2022/06/05 11:36:24;;;;;;;6.43;3.15;;;845.60;1433.60;;;;;;5083669;28;20016;-78
2022/06/05 11:39:09;;;;;;;8.15;3.25;;;870.50;1408.00;;;;;;5072830;28;20473;-79
2022/06/05 11:42:02;;;;;;;6.43;2.97;;;870.40;1484.80;;;;;;5066042;28;20033;-78
2022/06/05 11:44:45;;;;;;;6.57;3.05;;;870.80;1382.40;;;;;;5049467;28;20492;-78
2022/06/05 11:47:46;;;;;;;7.07;4.30;;;870.60;1459.20;;;;;;5082229;28;20027;-79
2022/06/05 11:50:34;;;;;;;6.18;3.15;;;845.70;1484.80;;;;;;5077946;28;20091;-79
2022/06/05 11:53:08;;;;;;;7.80;3.42;;;870.40;1484.80;;;;;;5069738;28;20474;-79
2022/06/05 11:55:53;;;;;;;8.13;3.87;;;870.60;1459.20;;;;;;5091900;28;20462;-78
2022/06/05 11:58:54;;;;;;;8.13;3.85;;;870.70;1484.80;;;;;;5080126;28;20286;-78
2022/06/05 12:01:26;;;;;;;7.38;3.75;;;870.80;1459.20;;;;;;5027144;28;20037;-78
2022/06/05 12:04:16;;;;;;;6.53;3.03;;;870.80;1408.00;;;;;;5029630;28;20033;-78
2022/06/05 12:06:53;;;;;;;6.28;4.00;;;845.70;1433.60;;;;;;5036360;28;20108;-80
2022/06/05 12:09:23;;;;;;;11.35;3.95;;;845.40;1484.80;;;;;;5044096;28;20055;-80
2022/06/05 12:12:05;;;;;;;6.97;3.75;;;845.10;1510.40;;;;;;5043665;28;20060;-79
2022/06/05 12:14:42;;;;;;;9.00;3.20;;;844.90;1510.40;;;;;;5030570;28;20025;-80
2022/06/05 12:17:19;;;;;;;5.82;3.30;;;820.10;1484.80;;;;;;5028100;28;20038;-78
2022/06/05 12:20:04;;;;;;;5.38;3.20;;;819.90;1510.40;;;;;;5039225;28;20021;-79
2022/06/05 12:22:52;;;;;;;5.65;3.13;;;819.70;1536.00;;;;;;5032382;28;20116;-79
2022/06/05 12:25:29;;;;;;;6.63;3.55;;;819.60;1510.40;;;;;;5004848;28;20045;-78
2022/06/05 12:28:15;;;;;;;7.82;3.50;;;819.80;1510.40;;;;;;5018591;28;20065;-79
2022/06/05 12:30:50;;;;;;;8.70;3.70;;;845.20;1459.20;;;;;;5010537;28;20045;-78
2022/06/05 12:33:49;;;;;;;7.30;4.00;;;845.60;1408.00;;;;;;5027377;28;20029;-78
2022/06/05 12:36:39;;;;;;;5.25;3.28;;;845.20;1433.60;;;;;;5023577;28;20029;-78
2022/06/05 12:39:28;;;;;;;5.88;3.55;;;844.90;1510.40;;;;;;5073196;28;20032;-79
2022/06/05 12:41:58;;;;;;;5.85;2.70;;;820.10;1433.60;;;;;;5063385;28;20025;-79
2022/06/05 12:44:52;;;;;;;9.35;3.63;;;819.90;1484.80;;;;;;5086656;28;20035;-79
2022/06/05 12:47:42;;;;;;;4.93;3.05;;;819.80;1484.80;;;;;;5082220;28;20070;-78
2022/06/05 12:50:24;;;;;;;7.80;3.47;;;845.00;1510.40;;;;;;5068603;28;20031;-78
2022/06/05 12:53:19;;;;;;;5.35;3.38;;;845.00;1587.20;;;;;;5063805;28;20025;-79
2022/06/05 12:55:54;;;;;;;5.38;3.00;;;845.30;1536.00;;;;;;5005745;28;20026;-79